createdAt,value
2022-12-26T00:02:06.389Z,92894.00
2022-12-26T00:04:53.162Z,92893.06
2022-12-26T00:07:36.638Z,92900.78
2022-12-26T00:10:20.892Z,92899.03
2022-12-26T00:13:38.717Z,92888.69
2022-12-26T00:16:08.851Z,92903.91
2022-12-26T00:18:52.507Z,92906.44
2022-12-26T00:21:35.608Z,92910.38
2022-12-26T00:24:18.424Z,92903.50
2022-12-26T00:27:02.556Z,92905.94
2022-12-26T00:29:45.364Z,92909.56
2022-12-26T00:32:28.491Z,92913.47
2022-12-26T00:35:11.477Z,92907.69
2022-12-26T00:37:54.295Z,92912.56
2022-12-26T00:40:42.902Z,92910.53
2022-12-26T00:43:27.062Z,92906.13
2022-12-26T00:46:10.022Z,92901.00
2022-12-26T00:48:52.862Z,92907.84
2022-12-26T00:51:35.631Z,92916.34
2022-12-26T00:54:18.473Z,92914.56
2022-12-26T00:57:01.490Z,92926.41
2022-12-26T00:59:45.640Z,92925.47
2022-12-26T01:02:40.537Z,92924.00
2022-12-26T01:05:23.653Z,92928.28
2022-12-26T01:08:21.683Z,92937.97
2022-12-26T01:11:09.074Z,92933.09
2022-12-26T01:13:51.904Z,92939.28
2022-12-26T01:16:36.096Z,92948.69
2022-12-26T01:19:18.904Z,92950.31
2022-12-26T01:22:02.034Z,92952.06
2022-12-26T01:24:44.890Z,92938.34
2022-12-26T01:27:27.825Z,92942.66
2022-12-26T01:30:12.895Z,92949.63
2022-12-26T01:32:57.127Z,92946.25
2022-12-26T01:35:39.979Z,92950.19
2022-12-26T01:38:23.054Z,92950.72
2022-12-26T01:41:19.385Z,92943.75
2022-12-26T01:44:04.516Z,92931.63
2022-12-26T01:46:47.345Z,92937.28
2022-12-26T01:49:36.739Z,92942.28
2022-12-26T01:52:25.959Z,92942.13
2022-12-26T01:55:13.176Z,92941.19
2022-12-26T01:58:01.970Z,92946.88
2022-12-26T02:00:45.223Z,92951.88
2022-12-26T02:03:53.821Z,92937.09
2022-12-26T02:06:41.290Z,92946.13
2022-12-26T02:09:24.684Z,92945.91
2022-12-26T02:12:36.540Z,92960.03
2022-12-26T02:15:18.307Z,92937.47
2022-12-26T02:18:02.637Z,92945.97
2022-12-26T02:20:56.772Z,92947.53
2022-12-26T02:24:16.348Z,92940.00
2022-12-26T02:27:23.665Z,92939.75
2022-12-26T02:30:44.812Z,92934.50
2022-12-26T02:33:46.751Z,92931.56
2022-12-26T02:36:52.315Z,92931.91
2022-12-26T02:39:51.721Z,92926.94
2022-12-26T02:42:44.864Z,92925.31
2022-12-26T02:45:52.236Z,92928.94
2022-12-26T02:48:47.424Z,92917.81
2022-12-26T02:52:00.120Z,92910.84
2022-12-26T02:55:04.793Z,92921.19
2022-12-26T02:58:10.573Z,92912.47
2022-12-26T03:01:16.326Z,92911.38
2022-12-26T03:04:19.802Z,92916.50
2022-12-26T03:07:25.003Z,92914.91
2022-12-26T03:10:34.549Z,92921.88
2022-12-26T03:13:23.226Z,92917.81
2022-12-26T03:16:27.506Z,92905.88
2022-12-26T03:19:14.776Z,92906.25
2022-12-26T03:21:59.000Z,92917.13
2022-12-26T03:25:02.936Z,92914.84
2022-12-26T03:27:44.878Z,92905.13
2022-12-26T03:30:45.110Z,92907.94
2022-12-26T03:33:47.850Z,92908.06
2022-12-26T03:36:42.532Z,92926.06
2022-12-26T03:39:50.509Z,92925.38
2022-12-26T03:43:01.475Z,92930.38
2022-12-26T03:46:10.395Z,92932.69
2022-12-26T03:49:18.575Z,92936.72
2022-12-26T03:52:24.663Z,92937.41
2022-12-26T03:55:32.736Z,92934.72
2022-12-26T03:58:38.020Z,92927.06
2022-12-26T04:01:39.892Z,92921.63
2022-12-26T04:04:43.670Z,92924.63
2022-12-26T04:07:56.623Z,92925.50
2022-12-26T04:11:04.117Z,92924.66
2022-12-26T04:14:13.513Z,92931.72
2022-12-26T04:17:20.372Z,92930.38
2022-12-26T04:20:18.032Z,92932.34
2022-12-26T04:23:24.423Z,92937.59
2022-12-26T04:26:30.606Z,92941.22
2022-12-26T04:29:31.128Z,92939.34
2022-12-26T04:32:38.337Z,92924.59
2022-12-26T04:35:42.805Z,92926.91
2022-12-26T04:38:49.276Z,92934.56
2022-12-26T04:41:51.891Z,92924.22
2022-12-26T04:44:37.024Z,92928.31
2022-12-26T04:47:19.966Z,92934.09
2022-12-26T04:50:15.464Z,92932.63
2022-12-26T04:53:01.243Z,92933.28
2022-12-26T04:55:45.575Z,92940.00
2022-12-26T04:58:28.423Z,92940.16
2022-12-26T05:01:31.403Z,92936.91
2022-12-26T05:04:32.445Z,92932.28
2022-12-26T05:07:37.996Z,92944.38
2022-12-26T05:10:22.826Z,92946.94
2022-12-26T05:13:07.005Z,92957.81
2022-12-26T05:16:06.633Z,92957.69
2022-12-26T05:19:03.406Z,92959.31
2022-12-26T05:22:06.144Z,92957.47
2022-12-26T05:25:07.205Z,92958.25
2022-12-26T05:28:12.991Z,92951.53
2022-12-26T05:30:57.199Z,92952.47
2022-12-26T05:33:57.667Z,92947.94
2022-12-26T05:36:45.108Z,92958.56
2022-12-26T05:39:27.926Z,92948.13
2022-12-26T05:42:10.746Z,92941.00
2022-12-26T05:44:53.529Z,92925.34
2022-12-26T05:47:37.720Z,92931.69
2022-12-26T05:50:20.561Z,92940.59
2022-12-26T05:53:04.039Z,92940.09
2022-12-26T05:55:46.884Z,92944.00
2022-12-26T05:58:29.707Z,92937.03
2022-12-26T06:01:14.948Z,92927.50
2022-12-26T06:04:01.063Z,92934.09
2022-12-26T06:06:44.000Z,92947.53
2022-12-26T06:09:26.805Z,92943.13
2022-12-26T06:12:09.605Z,92939.63
2022-12-26T06:14:52.651Z,92930.09
2022-12-26T06:17:35.580Z,92925.69
2022-12-26T06:20:19.717Z,92939.16
2022-12-26T06:23:02.571Z,92946.84
2022-12-26T06:25:45.357Z,92946.69
2022-12-26T06:28:28.794Z,92950.75
2022-12-26T06:31:15.181Z,92947.25
2022-12-26T06:34:01.327Z,92929.50
2022-12-26T06:36:45.516Z,92948.31
2022-12-26T06:39:28.361Z,92941.72
2022-12-26T06:42:11.257Z,92947.63
2022-12-26T06:44:54.071Z,92940.78
2022-12-26T06:47:36.830Z,92938.09
2022-12-26T06:50:21.704Z,92940.50
2022-12-26T06:53:05.903Z,92945.50
2022-12-26T06:55:48.825Z,92952.25
2022-12-26T06:58:31.646Z,92959.66
2022-12-26T07:01:16.537Z,92965.56
2022-12-26T07:04:00.190Z,92964.78
2022-12-26T07:06:43.155Z,92967.19
2022-12-26T07:09:33.357Z,92970.56
2022-12-26T07:12:20.700Z,92966.94
2022-12-26T07:15:03.525Z,92967.63
2022-12-26T07:17:46.346Z,92974.09
2022-12-26T07:20:29.237Z,92973.16
2022-12-26T07:23:12.276Z,92985.69
2022-12-26T07:25:56.413Z,92982.09
2022-12-26T07:28:39.451Z,92972.66
2022-12-26T07:31:22.503Z,92981.00
2022-12-26T07:34:05.516Z,92977.53
2022-12-26T07:36:48.623Z,92972.41
2022-12-26T07:39:31.519Z,92974.97
2022-12-26T07:42:15.659Z,92969.72
2022-12-26T07:44:58.483Z,92968.09
2022-12-26T07:47:41.321Z,92975.66
2022-12-26T07:50:24.365Z,92979.00
2022-12-26T07:53:08.468Z,92983.44
2022-12-26T07:55:51.298Z,92973.19
2022-12-26T07:58:35.503Z,92972.16
2022-12-26T08:01:18.738Z,92967.69
2022-12-26T08:04:01.816Z,92966.75
2022-12-26T08:06:47.558Z,92979.44
2022-12-26T08:09:31.972Z,92976.88
2022-12-26T08:12:14.996Z,92974.44
2022-12-26T08:14:59.173Z,92980.22
2022-12-26T08:17:43.267Z,92975.94
2022-12-26T08:20:26.368Z,92967.44
2022-12-26T08:23:09.302Z,92975.25
2022-12-26T08:25:52.356Z,92984.56
2022-12-26T08:28:35.265Z,92987.09
2022-12-26T08:31:21.042Z,93001.50
2022-12-26T08:34:04.034Z,93001.63
2022-12-26T08:36:46.869Z,93006.88
2022-12-26T08:39:29.717Z,93008.31
2022-12-26T08:42:12.490Z,93007.38
2022-12-26T08:44:55.344Z,93006.19
2022-12-26T08:47:40.736Z,93002.06
2022-12-26T08:50:24.284Z,93002.41
2022-12-26T08:53:07.093Z,92994.53
2022-12-26T08:55:49.910Z,92988.25
2022-12-26T08:58:33.267Z,92990.31
2022-12-26T09:01:18.072Z,92998.00
2022-12-26T09:04:06.617Z,92995.84
2022-12-26T09:06:49.568Z,92986.22
2022-12-26T09:09:32.390Z,92986.47
2022-12-26T09:12:15.156Z,92994.78
2022-12-26T09:14:58.053Z,92997.75
2022-12-26T09:17:40.840Z,92990.31
2022-12-26T09:20:25.470Z,92997.66
2022-12-26T09:23:10.827Z,92991.44
2022-12-26T09:25:53.631Z,92998.88
2022-12-26T09:28:36.930Z,92994.19
2022-12-26T09:31:23.168Z,92990.94
2022-12-26T09:34:07.673Z,92984.19
2022-12-26T09:36:51.927Z,92984.88
2022-12-26T09:39:34.775Z,92996.19
2022-12-26T09:42:28.793Z,93010.63
2022-12-26T09:45:15.701Z,93002.66
2022-12-26T09:48:07.792Z,93006.06
2022-12-26T09:50:52.642Z,93002.25
2022-12-26T09:53:41.871Z,92996.59
2022-12-26T09:59:35.504Z,92982.06
2022-12-26T10:02:21.094Z,92982.44
2022-12-26T10:05:04.099Z,92974.22
2022-12-26T10:07:52.232Z,92973.66
2022-12-26T10:10:45.872Z,92964.31
2022-12-26T10:13:37.419Z,92961.72
2022-12-26T10:16:25.432Z,92955.06
2022-12-26T10:19:19.965Z,92958.31
2022-12-26T10:22:15.616Z,92972.59
2022-12-26T10:25:01.427Z,92972.75
2022-12-26T10:27:49.348Z,92971.13
2022-12-26T10:30:36.623Z,92971.56
2022-12-26T10:33:26.010Z,92956.84
2022-12-26T10:36:17.132Z,92961.66
2022-12-26T10:39:02.118Z,92963.28
2022-12-26T10:41:50.978Z,92963.72
2022-12-26T10:44:35.136Z,92958.16
2022-12-26T10:47:27.300Z,92959.50
2022-12-26T10:50:20.279Z,92950.69
2022-12-26T10:53:11.224Z,92960.25
2022-12-26T10:55:54.571Z,92952.00
2022-12-26T10:58:38.736Z,92948.41
2022-12-26T11:01:34.287Z,92951.00
2022-12-26T11:07:23.399Z,92936.06
2022-12-26T11:10:17.408Z,92937.16
2022-12-26T11:13:03.277Z,92936.63
2022-12-26T11:15:49.984Z,92925.06
2022-12-26T11:18:38.117Z,92923.50
2022-12-26T11:21:25.911Z,92918.81
2022-12-26T11:24:19.422Z,92925.06
2022-12-26T11:27:18.528Z,92927.91
2022-12-26T11:30:23.894Z,92932.72
2022-12-26T11:33:22.236Z,92941.84
2022-12-26T11:36:18.115Z,92934.72
2022-12-26T11:39:04.745Z,92935.31
2022-12-26T11:41:49.187Z,92926.94
2022-12-26T11:44:36.093Z,92924.69
2022-12-26T11:47:21.789Z,92917.25
2022-12-26T11:50:08.675Z,92909.38
2022-12-26T11:53:04.335Z,92908.66
2022-12-26T11:55:59.451Z,92920.63
2022-12-26T11:58:42.080Z,92929.00
2022-12-26T12:01:24.900Z,92928.47
2022-12-26T12:04:08.909Z,92938.81
2022-12-26T12:07:04.616Z,92930.41
2022-12-26T12:09:57.781Z,92936.28
2022-12-26T12:12:51.065Z,92933.78
2022-12-26T12:15:43.073Z,92935.75
2022-12-26T12:18:42.020Z,92937.16
2022-12-26T12:21:33.972Z,92930.84
2022-12-26T12:24:33.006Z,92928.19
2022-12-26T12:27:26.509Z,92927.16
2022-12-26T12:30:19.463Z,92921.78
2022-12-26T12:33:27.075Z,92931.00
2022-12-26T12:36:12.736Z,92934.97
2022-12-26T12:39:03.417Z,92923.69
2022-12-26T12:42:07.311Z,92943.66
2022-12-26T12:45:05.596Z,92938.44
2022-12-26T12:48:01.937Z,92952.66
2022-12-26T12:50:56.689Z,92951.28
2022-12-26T12:54:01.893Z,92954.13
2022-12-26T12:56:55.971Z,92958.06
2022-12-26T12:59:53.269Z,92954.31
2022-12-26T13:02:42.840Z,92960.25
2022-12-26T13:05:43.260Z,92970.69
2022-12-26T13:08:32.533Z,92964.88
2022-12-26T13:11:23.158Z,92963.41
2022-12-26T13:14:12.700Z,92965.41
2022-12-26T13:16:59.334Z,92959.66
2022-12-26T13:19:51.710Z,92963.28
2022-12-26T13:22:53.546Z,92977.19
2022-12-26T13:25:41.788Z,92991.91
2022-12-26T13:28:31.606Z,92992.69
2022-12-26T13:31:14.822Z,92985.16
2022-12-26T13:33:57.759Z,92983.53
2022-12-26T13:36:45.955Z,92984.34
2022-12-26T13:39:39.429Z,92980.97
2022-12-26T13:42:58.946Z,93000.13
2022-12-26T13:46:00.992Z,93023.09
2022-12-26T13:49:27.120Z,93017.56
2022-12-26T13:52:33.638Z,93016.59
2022-12-26T13:55:31.009Z,93031.19
2022-12-26T13:58:39.773Z,93021.19
2022-12-26T14:01:38.356Z,93015.94
2022-12-26T14:04:39.204Z,93000.19
2022-12-26T14:07:31.792Z,92987.06
2022-12-26T14:10:20.992Z,92985.06
2022-12-26T14:13:17.854Z,92993.44
2022-12-26T14:16:09.122Z,92987.22
2022-12-26T14:18:59.162Z,93002.44
2022-12-26T14:21:52.392Z,92996.25
2022-12-26T14:24:51.213Z,92995.31
2022-12-26T14:27:40.080Z,92995.94
2022-12-26T14:30:29.682Z,93001.75
2022-12-26T14:33:30.419Z,93006.09
2022-12-26T14:36:23.382Z,93003.38
2022-12-26T14:39:23.155Z,92991.38
2022-12-26T14:42:38.153Z,92991.50
2022-12-26T14:45:46.189Z,93022.56
2022-12-26T14:48:58.424Z,93027.00
2022-12-26T14:51:42.163Z,93015.66
2022-12-26T14:54:50.962Z,93023.88
2022-12-26T14:57:54.485Z,93028.63
2022-12-26T15:00:38.842Z,93034.00
2022-12-26T15:03:40.461Z,93031.72
2022-12-26T15:06:55.262Z,93026.84
2022-12-26T15:10:26.857Z,93020.66
2022-12-26T15:13:32.353Z,93015.94
2022-12-26T15:16:32.195Z,93029.94
2022-12-26T15:19:44.031Z,93015.78
2022-12-26T15:22:59.603Z,93013.63
2022-12-26T15:26:19.799Z,93006.88
2022-12-26T15:29:29.518Z,93025.91
2022-12-26T15:32:19.414Z,93026.69
2022-12-26T15:35:12.645Z,93014.28
2022-12-26T15:38:18.665Z,93034.78
2022-12-26T15:41:12.673Z,93031.53
2022-12-26T15:44:09.811Z,93036.81
2022-12-26T15:47:05.557Z,93016.44
2022-12-26T15:50:03.496Z,93003.34
2022-12-26T15:52:54.667Z,93010.38
2022-12-26T15:55:52.621Z,93012.78
2022-12-26T15:58:51.467Z,92984.50
2022-12-26T16:01:40.530Z,93000.66
2022-12-26T16:04:30.305Z,92997.16
2022-12-26T16:07:25.278Z,93017.66
2022-12-26T16:10:16.664Z,93027.09
2022-12-26T16:13:05.079Z,93011.19
2022-12-26T16:15:50.188Z,93014.81
2022-12-26T16:18:34.473Z,93021.69
2022-12-26T16:21:38.739Z,93017.38
2022-12-26T16:24:22.072Z,93008.88
2022-12-26T16:27:08.315Z,93008.22
2022-12-26T16:29:56.073Z,93030.31
2022-12-26T16:32:42.522Z,93019.81
2022-12-26T16:35:28.305Z,92994.06
2022-12-26T16:38:18.067Z,92992.19
2022-12-26T16:41:00.993Z,93017.66
2022-12-26T16:43:43.902Z,93009.69
2022-12-26T16:46:31.135Z,93009.28
2022-12-26T16:49:14.306Z,93025.47
2022-12-26T16:51:57.547Z,93013.75
2022-12-26T16:54:42.461Z,92998.25
2022-12-26T16:57:25.597Z,93012.00
2022-12-26T17:00:18.307Z,93016.56
2022-12-26T17:03:03.802Z,93023.84
2022-12-26T17:05:47.973Z,93034.09
2022-12-26T17:08:31.491Z,93038.00
2022-12-26T17:11:16.449Z,93031.69
2022-12-26T17:14:01.736Z,93033.41
2022-12-26T17:16:44.771Z,93029.66
2022-12-26T17:19:29.696Z,93035.56
2022-12-26T17:22:23.237Z,93041.53
2022-12-26T17:25:22.095Z,93053.25
2022-12-26T17:28:29.746Z,93041.38
2022-12-26T17:31:16.971Z,93038.69
2022-12-26T17:34:03.107Z,93036.13
2022-12-26T17:37:17.894Z,93036.13
2022-12-26T17:39:59.034Z,93034.22
2022-12-26T17:42:48.728Z,93029.00
2022-12-26T17:45:33.017Z,93004.59
2022-12-26T17:48:16.477Z,93007.56
2022-12-26T17:51:01.474Z,93015.25
2022-12-26T17:53:49.002Z,93010.91
2022-12-26T17:56:32.293Z,93026.97
2022-12-26T17:59:15.752Z,93021.06
2022-12-26T18:01:59.980Z,93010.66
2022-12-26T18:04:43.166Z,93005.00
2022-12-26T18:07:31.295Z,93000.41
2022-12-26T18:10:18.966Z,93002.03
2022-12-26T18:13:02.130Z,93009.72
2022-12-26T18:15:44.939Z,93006.06
2022-12-26T18:18:33.331Z,93009.97
2022-12-26T18:21:17.098Z,93007.31
2022-12-26T18:23:59.901Z,93013.38
2022-12-26T18:26:42.765Z,93010.81
2022-12-26T18:29:25.571Z,93013.22
2022-12-26T18:32:13.566Z,93000.56
2022-12-26T18:34:58.228Z,93007.31
2022-12-26T18:37:41.919Z,93003.81
2022-12-26T18:40:29.766Z,93007.16
2022-12-26T18:43:12.688Z,92992.88
2022-12-26T18:45:55.660Z,92986.66
2022-12-26T18:48:38.497Z,92973.88
2022-12-26T18:51:22.710Z,92997.84
2022-12-26T18:54:05.821Z,93001.25
2022-12-26T18:56:48.599Z,93006.38
2022-12-26T18:59:31.459Z,93008.94
2022-12-26T19:02:17.711Z,92992.72
2022-12-26T19:05:01.242Z,92980.88
2022-12-26T19:07:48.245Z,92998.69
2022-12-26T19:10:33.292Z,92998.69
2022-12-26T19:13:16.598Z,93011.50
2022-12-26T19:16:01.358Z,93005.41
2022-12-26T19:18:44.264Z,92999.47
2022-12-26T19:21:27.155Z,93000.41
2022-12-26T19:24:12.748Z,92986.41
2022-12-26T19:26:55.545Z,92977.09
2022-12-26T19:29:38.364Z,92984.78
2022-12-26T19:32:21.234Z,92980.75
2022-12-26T19:35:04.472Z,92979.66
2022-12-26T19:37:47.283Z,92970.59
2022-12-26T19:40:31.592Z,92972.63
2022-12-26T19:43:14.401Z,92978.56
2022-12-26T19:46:00.387Z,92983.41
2022-12-26T19:48:43.615Z,92978.97
2022-12-26T19:51:26.438Z,92983.31
2022-12-26T19:54:09.360Z,92977.91
2022-12-26T19:56:53.540Z,92968.31
2022-12-26T19:59:36.595Z,92966.69
2022-12-26T20:02:19.571Z,92958.91
2022-12-26T20:05:03.106Z,92965.47
2022-12-26T20:07:45.930Z,92965.22
2022-12-26T20:10:28.806Z,92969.81
2022-12-26T20:13:12.938Z,92957.13
2022-12-26T20:15:55.832Z,92973.81
2022-12-26T20:18:39.219Z,92978.69
2022-12-26T20:21:23.678Z,92972.78
2022-12-26T20:24:06.935Z,92975.34
2022-12-26T20:26:50.291Z,92979.78
2022-12-26T20:29:34.464Z,92972.09
2022-12-26T20:32:17.569Z,92966.69
2022-12-26T20:35:00.425Z,92956.84
2022-12-26T20:37:44.569Z,92956.16
2022-12-26T20:40:27.425Z,92972.50
2022-12-26T20:43:10.248Z,92974.38
2022-12-26T20:45:55.030Z,92969.09
2022-12-26T20:48:38.237Z,92975.97
2022-12-26T20:51:23.367Z,92985.56
2022-12-26T20:54:07.699Z,92976.25
2022-12-26T20:56:50.579Z,92980.44
2022-12-26T20:59:33.415Z,92980.44
2022-12-26T21:02:17.858Z,92979.22
2022-12-26T21:05:01.430Z,92988.78
2022-12-26T21:07:44.946Z,92989.06
2022-12-26T21:10:27.724Z,93000.88
2022-12-26T21:13:10.657Z,92998.75
2022-12-26T21:15:53.485Z,93002.09
2022-12-26T21:18:38.045Z,93005.84
2022-12-26T21:21:23.369Z,93008.66
2022-12-26T21:24:08.870Z,93009.94
2022-12-26T21:26:52.268Z,93008.56
2022-12-26T21:29:36.747Z,93001.81
2022-12-26T21:32:19.606Z,92999.94
2022-12-26T21:35:03.814Z,93012.31
2022-12-26T21:37:50.853Z,93009.50
2022-12-26T21:40:33.753Z,93000.06
2022-12-26T21:43:16.897Z,93007.03
2022-12-26T21:46:01.384Z,93003.00
2022-12-26T21:48:47.300Z,93013.91
2022-12-26T21:51:32.281Z,92998.44
2022-12-26T21:54:32.695Z,93012.16
2022-12-26T21:57:15.510Z,93006.88
2022-12-26T21:59:59.191Z,93018.19
2022-12-26T22:03:00.142Z,93024.78
2022-12-26T22:05:43.236Z,93021.53
2022-12-26T22:08:27.585Z,93028.81
2022-12-26T22:11:35.946Z,93036.38
2022-12-26T22:14:18.769Z,93036.38
2022-12-26T22:17:01.585Z,93019.66
2022-12-26T22:19:44.340Z,93022.38
2022-12-26T22:22:27.197Z,93035.56
2022-12-26T22:25:11.561Z,93048.00
2022-12-26T22:27:54.615Z,93063.19
2022-12-26T22:30:37.410Z,93070.88
2022-12-26T22:33:20.725Z,93074.22
2022-12-26T22:36:07.876Z,93084.75
2022-12-26T22:38:50.716Z,93076.09
2022-12-26T22:41:35.085Z,93085.94
2022-12-26T22:44:17.827Z,93081.19
2022-12-26T22:47:00.613Z,93085.63
2022-12-26T22:49:43.393Z,93080.50
2022-12-26T22:52:26.192Z,93095.03
2022-12-26T22:55:09.507Z,93101.22
2022-12-26T22:57:55.796Z,93098.13
2022-12-26T23:00:42.129Z,93105.09
2022-12-26T23:03:26.075Z,93111.41
2022-12-26T23:06:19.098Z,93114.22
2022-12-26T23:09:03.911Z,93110.16
2022-12-26T23:12:07.572Z,93111.22
2022-12-26T23:14:52.101Z,93100.66
2022-12-26T23:17:56.550Z,93108.47
2022-12-26T23:20:58.408Z,93116.28
2022-12-26T23:23:41.944Z,93121.50
2022-12-26T23:26:24.706Z,93114.06
2022-12-26T23:29:25.432Z,93126.06
2022-12-26T23:32:11.467Z,93120.50
2022-12-26T23:34:54.265Z,93117.94
2022-12-26T23:37:37.449Z,93111.47
2022-12-26T23:40:21.839Z,93116.50
2022-12-26T23:43:04.710Z,93117.13
2022-12-26T23:45:47.675Z,93113.06
2022-12-26T23:48:34.619Z,93124.31
2022-12-26T23:51:17.555Z,93120.81
2022-12-26T23:54:00.425Z,93117.56
2022-12-26T23:56:43.277Z,93124.69
2022-12-26T23:59:26.275Z,93123.44
